Time;durP1;ratioP1;P1;durP2;ratioP2;P2;SDS_P1;SDS_P2;PMS_P1;PMS_P2;Temp;Humidity;BMP_temperature;BMP_pressure;BME280_temperature;BME280_humidity;BME280_pressure;Samples;Min_cycle;Max_cycle;Signal;HPM_P1;HPM_P2
2022/07/09 00:01:32;;;;;;;2.60;2.23;;;13.60;99.90;;;;;;5032363;28;20480;-70
2022/07/09 00:04:00;;;;;;;2.70;2.20;;;13.50;99.90;;;;;;5032612;28;20464;-70
2022/07/09 00:06:28;;;;;;;3.00;2.33;;;13.50;99.90;;;;;;5033009;28;20471;-70
2022/07/09 00:08:55;;;;;;;2.60;2.20;;;13.50;99.90;;;;;;5032685;28;20468;-70
2022/07/09 00:11:22;;;;;;;3.23;2.80;;;13.50;99.90;;;;;;5031966;28;20452;-70
2022/07/09 00:13:49;;;;;;;3.60;2.60;;;13.40;99.90;;;;;;5032642;28;20867;-70
2022/07/09 00:16:15;;;;;;;3.10;2.50;;;13.40;99.90;;;;;;5032356;28;20480;-70
2022/07/09 00:18:42;;;;;;;3.20;2.43;;;13.40;99.90;;;;;;5032106;28;20467;-70
2022/07/09 00:21:10;;;;;;;2.93;2.50;;;13.40;99.90;;;;;;5031681;28;20495;-71
2022/07/09 00:23:37;;;;;;;2.60;2.37;;;13.30;99.90;;;;;;5032227;28;20459;-70
2022/07/09 00:26:04;;;;;;;4.00;2.47;;;13.30;99.90;;;;;;5032360;28;20484;-71
2022/07/09 00:28:30;;;;;;;3.00;2.40;;;13.30;99.90;;;;;;5031941;28;20459;-71
2022/07/09 00:30:57;;;;;;;3.03;2.67;;;13.30;99.90;;;;;;5031669;28;20457;-71
2022/07/09 00:33:24;;;;;;;6.70;2.90;;;13.30;99.90;;;;;;5031909;28;20960;-70
2022/07/09 00:35:50;;;;;;;2.93;2.43;;;13.20;99.90;;;;;;5032188;28;20480;-71
2022/07/09 00:38:18;;;;;;;2.87;2.53;;;13.20;99.90;;;;;;5031948;28;20464;-71
2022/07/09 00:40:45;;;;;;;4.17;2.83;;;13.20;99.90;;;;;;5031351;28;20491;-70
2022/07/09 00:43:19;;;;;;;4.43;2.33;;;13.20;99.90;;;;;;5031647;28;20464;-71
2022/07/09 00:45:46;;;;;;;3.90;2.60;;;13.20;99.90;;;;;;5031736;28;20482;-70
2022/07/09 00:48:13;;;;;;;2.73;2.47;;;13.20;99.90;;;;;;5031683;28;20471;-70
2022/07/09 00:50:43;;;;;;;3.70;2.67;;;13.10;99.90;;;;;;5031220;28;20464;-70
2022/07/09 00:53:13;;;;;;;3.87;2.80;;;13.10;99.90;;;;;;5032096;28;20460;-71
2022/07/09 00:55:44;;;;;;;4.50;2.67;;;13.10;99.90;;;;;;5031904;28;21196;-70
2022/07/09 00:58:11;;;;;;;4.60;3.00;;;13.00;99.90;;;;;;5031686;28;20460;-71
2022/07/09 01:00:38;;;;;;;4.10;3.03;;;13.00;99.90;;;;;;5030679;28;20497;-71
2022/07/09 01:03:05;;;;;;;4.10;3.60;;;13.00;99.90;;;;;;5031451;28;20465;-70
2022/07/09 01:05:35;;;;;;;4.50;2.73;;;12.90;99.90;;;;;;5031243;28;20483;-70
2022/07/09 01:08:03;;;;;;;4.17;2.47;;;12.90;99.90;;;;;;5031381;28;20457;-71
2022/07/09 01:10:30;;;;;;;2.83;2.63;;;12.80;99.90;;;;;;5030684;28;20456;-70
2022/07/09 01:12:58;;;;;;;3.17;2.83;;;12.80;99.90;;;;;;5031276;28;20467;-70
2022/07/09 01:15:25;;;;;;;3.47;2.80;;;12.80;99.90;;;;;;5031088;28;21093;-70
2022/07/09 01:17:52;;;;;;;3.57;2.73;;;12.80;99.90;;;;;;5031369;28;20464;-71
2022/07/09 01:20:23;;;;;;;3.10;2.80;;;12.70;99.90;;;;;;5030654;28;20593;-70
2022/07/09 01:22:49;;;;;;;4.93;2.80;;;12.70;99.90;;;;;;5031090;28;20510;-71
2022/07/09 01:25:18;;;;;;;3.93;2.83;;;12.70;99.90;;;;;;5030945;28;20480;-70
2022/07/09 01:27:45;;;;;;;4.73;2.90;;;12.70;99.90;;;;;;5031036;28;20468;-70
2022/07/09 01:30:12;;;;;;;3.93;2.93;;;12.70;99.90;;;;;;5030441;28;20531;-70
2022/07/09 01:32:38;;;;;;;5.13;2.80;;;12.80;99.90;;;;;;5030951;28;20464;-70
2022/07/09 01:35:06;;;;;;;4.03;2.80;;;12.70;99.90;;;;;;5030907;28;20484;-70
2022/07/09 01:37:34;;;;;;;3.57;2.90;;;12.70;99.90;;;;;;5030741;28;20464;-70
2022/07/09 01:40:00;;;;;;;3.80;3.00;;;12.60;99.90;;;;;;5030275;28;20468;-70
2022/07/09 01:42:27;;;;;;;8.50;3.37;;;12.60;99.90;;;;;;5061992;22;20503;-93
2022/07/09 01:44:54;;;;;;;3.60;3.13;;;12.60;99.90;;;;;;5058644;28;20460;-93
2022/07/09 01:47:21;;;;;;;3.57;3.27;;;12.50;99.90;;;;;;5062063;28;20513;-93
2022/07/09 01:49:47;;;;;;;3.13;2.60;;;12.50;99.90;;;;;;5060670;28;20466;-92
2022/07/09 01:52:15;;;;;;;4.17;3.10;;;12.50;99.90;;;;;;5060948;28;20554;-93
2022/07/09 01:54:43;;;;;;;3.40;2.93;;;12.50;99.90;;;;;;5060170;28;20486;-93
2022/07/09 01:57:10;;;;;;;4.97;3.57;;;12.40;99.90;;;;;;5060828;28;20452;-93
2022/07/09 01:59:36;;;;;;;3.83;3.10;;;12.40;99.90;;;;;;5063184;28;20441;-94
2022/07/09 02:02:05;;;;;;;5.80;3.37;;;12.40;99.90;;;;;;5077679;28;20539;-95
2022/07/09 02:04:31;;;;;;;4.80;3.33;;;12.40;99.90;;;;;;5077745;28;20459;-93
2022/07/09 02:06:58;;;;;;;5.53;3.43;;;12.40;99.90;;;;;;5064975;28;20956;-94
2022/07/09 02:09:25;;;;;;;4.00;3.60;;;12.40;99.90;;;;;;5062715;28;20468;-93
2022/07/09 02:11:53;;;;;;;3.50;2.60;;;12.30;99.90;;;;;;5063914;28;20459;-93
2022/07/09 02:14:20;;;;;;;6.87;3.23;;;12.30;99.90;;;;;;5061734;28;20463;-93
2022/07/09 02:16:47;;;;;;;4.87;3.50;;;12.40;99.90;;;;;;5062972;28;20451;-93
2022/07/09 02:19:14;;;;;;;3.20;2.90;;;12.30;99.90;;;;;;5061909;28;20467;-93
2022/07/09 02:21:41;;;;;;;4.20;3.40;;;12.30;99.90;;;;;;5061939;28;20494;-93
2022/07/09 02:24:08;;;;;;;3.60;3.10;;;12.30;99.90;;;;;;5060751;28;20475;-93
2022/07/09 02:26:34;;;;;;;4.47;2.60;;;12.30;99.90;;;;;;5061438;28;20468;-94
2022/07/09 02:29:04;;;;;;;4.50;3.07;;;12.30;99.90;;;;;;5063063;28;20482;-93
2022/07/09 02:31:31;;;;;;;4.17;3.20;;;12.30;99.90;;;;;;5061902;28;20462;-93
2022/07/09 02:33:58;;;;;;;4.70;3.43;;;12.30;99.90;;;;;;5063668;28;20507;-93
2022/07/09 02:36:25;;;;;;;3.93;2.60;;;12.30;99.90;;;;;;5063050;28;20466;-93
2022/07/09 02:38:52;;;;;;;5.90;3.27;;;12.30;99.90;;;;;;5062545;28;20468;-93
2022/07/09 02:41:19;;;;;;;3.50;3.20;;;12.30;99.90;;;;;;5062802;28;20483;-93
2022/07/09 02:43:45;;;;;;;4.30;3.00;;;12.20;99.90;;;;;;5063308;28;20488;-93
2022/07/09 02:46:13;;;;;;;4.77;3.20;;;12.20;99.90;;;;;;5061811;28;20452;-93
2022/07/09 02:48:40;;;;;;;4.10;3.00;;;12.20;99.90;;;;;;5062054;28;20466;-93
2022/07/09 02:51:07;;;;;;;4.70;3.20;;;12.20;99.90;;;;;;5061360;28;20451;-93
2022/07/09 02:53:34;;;;;;;3.70;3.40;;;12.10;99.90;;;;;;5061272;28;20458;-93
2022/07/09 02:56:01;;;;;;;3.80;3.40;;;12.10;99.90;;;;;;5062408;28;20469;-92
2022/07/09 02:58:28;;;;;;;6.43;4.03;;;12.10;99.90;;;;;;5062727;28;20463;-94
2022/07/09 03:00:54;;;;;;;5.63;3.17;;;12.10;99.90;;;;;;5062416;28;20911;-93
2022/07/09 03:03:24;;;;;;;7.60;3.60;;;12.00;99.90;;;;;;5063498;28;20486;-93
2022/07/09 03:05:51;;;;;;;3.50;3.20;;;12.00;99.90;;;;;;5064009;28;20466;-92
2022/07/09 03:08:18;;;;;;;5.50;3.30;;;12.00;99.90;;;;;;5066613;28;20465;-93
2022/07/09 03:10:45;;;;;;;3.20;2.90;;;12.00;99.90;;;;;;5068702;28;20561;-93
2022/07/09 03:13:12;;;;;;;5.07;3.60;;;12.00;99.90;;;;;;5073970;28;20505;-93
2022/07/09 03:15:39;;;;;;;5.50;3.40;;;11.90;99.90;;;;;;5078767;28;20547;-94
2022/07/09 03:18:08;;;;;;;6.73;3.37;;;11.90;99.90;;;;;;5077352;28;20527;-95
2022/07/09 03:20:36;;;;;;;4.33;3.00;;;11.90;99.90;;;;;;5070807;28;20479;-94
2022/07/09 03:23:03;;;;;;;3.70;2.93;;;11.90;99.90;;;;;;5071357;28;20562;-94
2022/07/09 03:25:30;;;;;;;8.20;3.50;;;11.90;99.90;;;;;;5070694;28;20462;-94
2022/07/09 03:27:57;;;;;;;3.00;2.70;;;11.90;99.90;;;;;;5071099;28;20474;-93
2022/07/09 03:30:24;;;;;;;3.10;2.87;;;11.90;99.90;;;;;;5078690;28;20500;-93
2022/07/09 03:32:51;;;;;;;3.40;3.07;;;11.90;99.90;;;;;;5080153;28;20463;-94
2022/07/09 03:35:19;;;;;;;3.53;2.97;;;11.90;99.90;;;;;;5078716;28;20456;-93
2022/07/09 03:37:48;;;;;;;4.43;2.87;;;11.90;99.90;;;;;;5078158;28;20456;-94
2022/07/09 03:40:16;;;;;;;3.27;2.70;;;11.90;99.90;;;;;;5075557;28;20463;-94
2022/07/09 03:42:43;;;;;;;5.27;3.27;;;11.90;99.90;;;;;;5071459;28;20579;-94
2022/07/09 03:45:11;;;;;;;3.93;2.73;;;11.90;99.90;;;;;;5071915;28;20538;-95
2022/07/09 03:47:38;;;;;;;3.20;2.80;;;11.80;99.90;;;;;;5071996;28;20461;-93
2022/07/09 03:50:06;;;;;;;3.10;2.80;;;11.90;99.90;;;;;;5071301;28;20494;-93
2022/07/09 03:52:32;;;;;;;4.72;3.13;;;11.90;99.90;;;;;;5071922;28;20537;-94
2022/07/09 03:55:01;;;;;;;4.20;3.00;;;11.90;99.90;;;;;;5070366;28;20200;-93
2022/07/09 03:57:43;;;;;;;5.20;3.20;;;11.90;99.90;;;;;;5076676;28;20207;-94
2022/07/09 04:00:11;;;;;;;3.13;2.73;;;11.90;99.90;;;;;;5072431;28;20201;-94
2022/07/09 04:02:37;;;;;;;4.55;2.85;;;11.90;99.90;;;;;;5064401;28;20494;-94
2022/07/09 04:05:05;;;;;;;3.43;3.13;;;11.90;99.90;;;;;;5065372;28;20205;-95
2022/07/09 04:07:32;;;;;;;3.90;2.90;;;11.90;99.90;;;;;;5066279;28;20982;-95
2022/07/09 04:09:59;;;;;;;2.75;2.55;;;11.90;99.90;;;;;;5068370;28;20439;-94
2022/07/09 04:12:27;;;;;;;5.20;3.20;;;11.90;99.90;;;;;;5070197;28;20225;-94
2022/07/09 04:14:54;;;;;;;4.47;3.07;;;11.90;99.90;;;;;;5072532;28;20284;-94
2022/07/09 04:17:20;;;;;;;3.30;2.80;;;11.90;99.90;;;;;;5062905;28;20912;-94
2022/07/09 04:19:47;;;;;;;4.17;3.13;;;11.90;99.90;;;;;;5064850;28;20642;-93
2022/07/09 04:22:14;;;;;;;3.03;2.83;;;11.90;99.90;;;;;;5067526;28;20533;-93
2022/07/09 04:24:41;;;;;;;5.03;3.20;;;11.90;99.90;;;;;;5068290;28;20546;-94
2022/07/09 04:27:08;;;;;;;4.63;3.30;;;11.90;99.90;;;;;;5064813;28;20471;-94
2022/07/09 04:29:36;;;;;;;3.30;3.00;;;11.90;99.90;;;;;;5064195;28;20509;-95
2022/07/09 04:32:03;;;;;;;5.53;3.47;;;11.90;99.90;;;;;;5064153;28;20456;-94
2022/07/09 04:34:30;;;;;;;4.80;3.00;;;11.90;99.90;;;;;;5063142;28;20463;-93
2022/07/09 04:36:57;;;;;;;4.10;2.97;;;12.00;99.90;;;;;;5060995;28;20460;-94
2022/07/09 04:39:24;;;;;;;4.70;3.30;;;12.00;99.90;;;;;;5063971;28;20458;-93
2022/07/09 04:41:51;;;;;;;5.73;3.60;;;12.00;99.90;;;;;;5061437;28;20700;-93
2022/07/09 04:44:18;;;;;;;3.50;3.20;;;12.10;99.90;;;;;;5059616;28;20467;-94
2022/07/09 04:46:46;;;;;;;5.20;3.80;;;12.10;99.90;;;;;;5047608;28;20835;-93
2022/07/09 04:49:13;;;;;;;3.53;3.23;;;12.10;99.90;;;;;;5033634;28;20471;-93
2022/07/09 04:51:39;;;;;;;5.13;3.63;;;12.20;99.90;;;;;;5034338;28;20464;-93
2022/07/09 04:54:06;;;;;;;3.30;3.00;;;12.20;99.90;;;;;;5034518;28;20485;-92
2022/07/09 04:56:33;;;;;;;4.60;2.40;;;12.20;99.90;;;;;;5035010;28;20471;-93
2022/07/09 04:59:02;;;;;;;3.77;2.90;;;12.20;99.90;;;;;;5034311;28;20503;-92
2022/07/09 05:01:29;;;;;;;3.55;3.25;;;12.30;99.90;;;;;;5041227;28;20449;-93
2022/07/09 05:03:58;;;;;;;5.33;3.40;;;12.30;99.90;;;;;;5057888;28;20461;-94
2022/07/09 05:06:25;;;;;;;5.53;3.93;;;12.40;99.90;;;;;;5057978;28;20468;-93
2022/07/09 05:08:52;;;;;;;4.90;3.70;;;12.40;99.90;;;;;;5058265;28;20446;-93
2022/07/09 05:11:19;;;;;;;4.07;3.67;;;12.50;99.90;;;;;;5057742;28;20464;-95
2022/07/09 05:13:46;;;;;;;7.40;3.20;;;12.60;99.90;;;;;;5057304;28;20524;-94
2022/07/09 05:16:13;;;;;;;3.73;3.33;;;12.70;99.90;;;;;;5058092;28;20444;-95
2022/07/09 05:18:40;;;;;;;5.80;3.60;;;12.80;99.90;;;;;;5057753;28;20533;-95
2022/07/09 05:21:08;;;;;;;4.27;3.33;;;12.80;99.90;;;;;;5057516;28;20433;-94
2022/07/09 05:23:35;;;;;;;3.83;3.37;;;12.90;99.90;;;;;;5057868;28;20524;-94
2022/07/09 05:26:02;;;;;;;3.70;3.40;;;13.00;99.90;;;;;;5057527;28;20440;-94
2022/07/09 05:28:29;;;;;;;3.80;3.40;;;13.00;99.90;;;;;;5057622;28;20436;-94
2022/07/09 05:30:55;;;;;;;9.77;4.23;;;13.10;99.90;;;;;;5056662;28;20539;-95
2022/07/09 05:33:22;;;;;;;3.60;3.30;;;13.20;99.90;;;;;;5053295;28;20476;-91
2022/07/09 05:35:49;;;;;;;4.60;3.63;;;13.30;99.90;;;;;;5062811;28;20467;-93
2022/07/09 05:38:17;;;;;;;6.97;3.50;;;13.40;99.90;;;;;;5061762;28;20466;-92
2022/07/09 05:40:44;;;;;;;10.17;4.00;;;13.40;99.90;;;;;;5058564;28;20467;-93
2022/07/09 05:43:10;;;;;;;6.90;3.90;;;13.50;99.90;;;;;;5061588;28;20494;-92
2022/07/09 05:45:37;;;;;;;5.60;3.63;;;13.60;99.90;;;;;;5073371;28;20490;-94
2022/07/09 05:48:04;;;;;;;4.40;3.47;;;13.70;99.90;;;;;;5046531;28;20475;-93
2022/07/09 05:50:32;;;;;;;4.13;3.73;;;13.80;99.90;;;;;;5046066;28;20472;-93
2022/07/09 05:52:59;;;;;;;5.80;4.30;;;13.90;99.90;;;;;;5049468;28;20859;-91
2022/07/09 05:55:28;;;;;;;3.73;3.43;;;14.00;99.90;;;;;;5050805;28;20448;-91
2022/07/09 05:57:54;;;;;;;5.73;3.40;;;14.10;99.90;;;;;;5047050;28;20459;-91
2022/07/09 06:00:21;;;;;;;4.30;3.70;;;14.20;99.90;;;;;;5047870;28;20495;-91
2022/07/09 06:02:48;;;;;;;3.20;2.90;;;14.40;99.90;;;;;;5035907;28;20492;-88
2022/07/09 06:05:15;;;;;;;4.00;2.80;;;14.50;99.90;;;;;;5034565;28;20555;-89
2022/07/09 06:07:44;;;;;;;3.73;3.13;;;14.60;99.90;;;;;;5033807;28;20922;-88
2022/07/09 06:10:13;;;;;;;3.60;3.27;;;14.60;99.90;;;;;;5033692;28;20460;-88
2022/07/09 06:12:55;;;;;;;3.40;3.10;;;14.70;99.90;;;;;;5040544;28;20488;-92
2022/07/09 06:15:21;;;;;;;4.37;3.10;;;14.80;99.90;;;;;;5037053;28;20455;-92
2022/07/09 06:17:50;;;;;;;4.77;3.10;;;14.90;99.90;;;;;;5045585;28;20457;-94
2022/07/09 06:20:17;;;;;;;3.90;2.77;;;15.00;99.90;;;;;;5048572;28;20456;-92
2022/07/09 06:22:44;;;;;;;3.27;2.97;;;15.10;99.90;;;;;;5046139;28;20484;-92
2022/07/09 06:25:10;;;;;;;4.70;3.13;;;15.20;99.90;;;;;;5044887;28;20456;-91
2022/07/09 06:27:37;;;;;;;4.60;2.73;;;15.30;99.90;;;;;;5034244;28;20472;-92
2022/07/09 06:30:08;;;;;;;3.30;2.80;;;15.40;99.90;;;;;;5031863;28;20946;-94
2022/07/09 06:32:36;;;;;;;4.60;3.00;;;15.50;99.90;;;;;;5032056;28;20835;-90
2022/07/09 06:35:03;;;;;;;3.37;2.70;;;15.60;99.90;;;;;;5031162;28;20467;-92
2022/07/09 06:37:30;;;;;;;3.60;2.77;;;15.70;99.90;;;;;;5033557;28;20464;-92
2022/07/09 06:39:59;;;;;;;3.33;2.73;;;15.80;99.90;;;;;;5034313;28;20460;-92
2022/07/09 06:42:26;;;;;;;5.03;2.87;;;15.90;99.90;;;;;;5043214;28;21125;-93
2022/07/09 06:44:53;;;;;;;6.90;2.60;;;16.00;99.90;;;;;;5037151;28;20522;-93
2022/07/09 06:47:21;;;;;;;3.90;2.70;;;16.00;99.90;;;;;;5038704;28;20464;-92
2022/07/09 06:49:48;;;;;;;3.40;3.10;;;16.10;99.90;;;;;;5039025;28;20551;-91
2022/07/09 06:52:14;;;;;;;5.43;3.20;;;16.20;99.90;;;;;;5038574;28;20480;-92
2022/07/09 06:54:41;;;;;;;2.97;2.53;;;16.30;99.90;;;;;;5039694;28;20460;-91
2022/07/09 06:57:09;;;;;;;3.33;2.63;;;16.40;99.90;;;;;;5040737;28;20462;-93
2022/07/09 06:59:36;;;;;;;4.53;2.90;;;16.50;99.90;;;;;;5038391;28;20496;-92
2022/07/09 07:02:03;;;;;;;3.30;2.97;;;16.60;99.90;;;;;;5035334;28;20480;-92
2022/07/09 07:04:31;;;;;;;3.50;3.00;;;16.70;99.90;;;;;;5035682;28;20822;-92
2022/07/09 07:06:58;;;;;;;4.67;3.17;;;16.80;99.90;;;;;;5036202;28;20826;-93
2022/07/09 07:09:25;;;;;;;3.33;2.67;;;16.90;99.90;;;;;;5036053;28;20460;-92
2022/07/09 07:11:52;;;;;;;2.80;2.57;;;17.00;99.90;;;;;;5036459;28;20464;-92
2022/07/09 07:14:18;;;;;;;4.93;3.30;;;17.20;99.90;;;;;;5036210;28;20863;-91
2022/07/09 07:16:45;;;;;;;3.03;2.50;;;17.30;99.90;;;;;;5043221;28;20464;-94
2022/07/09 07:19:12;;;;;;;3.57;2.73;;;17.40;99.90;;;;;;5036960;28;20965;-91
2022/07/09 07:21:41;;;;;;;2.90;2.60;;;17.60;99.90;;;;;;5036720;28;20468;-93
2022/07/09 07:24:08;;;;;;;3.63;2.80;;;17.70;99.90;;;;;;5039078;28;20484;-92
2022/07/09 07:26:36;;;;;;;3.57;2.80;;;17.80;99.90;;;;;;5039371;28;20449;-92
2022/07/09 07:29:03;;;;;;;4.27;2.10;;;18.00;99.90;;;;;;5038580;28;20456;-91
2022/07/09 07:31:30;;;;;;;6.73;2.27;;;18.10;99.90;;;;;;5037416;28;20841;-93
2022/07/09 07:33:57;;;;;;;3.50;2.70;;;18.20;99.90;;;;;;5037335;28;20477;-93
2022/07/09 07:36:24;;;;;;;4.33;2.30;;;18.30;99.90;;;;;;5037884;28;20460;-93
2022/07/09 07:38:52;;;;;;;2.90;1.93;;;18.40;99.90;;;;;;5017899;28;20456;-91
2022/07/09 07:41:20;;;;;;;2.63;2.33;;;18.40;99.90;;;;;;5036165;28;20456;-93
2022/07/09 07:43:48;;;;;;;6.83;2.47;;;18.50;99.90;;;;;;5108200;22;20534;-70
2022/07/09 07:46:14;;;;;;;3.00;2.10;;;18.60;99.90;;;;;;5070935;28;20475;-70
2022/07/09 07:48:41;;;;;;;5.10;1.93;;;18.70;99.90;;;;;;5069131;28;20465;-69
2022/07/09 07:51:09;;;;;;;3.80;2.40;;;18.80;99.90;;;;;;5070202;28;20462;-70
2022/07/09 07:53:36;;;;;;;4.00;2.40;;;19.00;99.90;;;;;;5068848;28;20486;-70
2022/07/09 07:56:05;;;;;;;3.47;2.40;;;19.00;99.90;;;;;;5070578;28;20478;-70
2022/07/09 07:58:32;;;;;;;7.03;2.50;;;19.20;99.90;;;;;;5070081;28;20810;-69
2022/07/09 08:00:59;;;;;;;2.17;1.93;;;19.20;99.90;;;;;;5070518;28;20455;-70
2022/07/09 08:03:26;;;;;;;6.70;2.80;;;19.20;99.90;;;;;;5072135;28;20823;-71
2022/07/09 08:05:52;;;;;;;3.73;2.13;;;19.20;99.90;;;;;;5072189;28;20478;-70
2022/07/09 08:08:20;;;;;;;5.33;2.10;;;19.30;99.90;;;;;;5070989;28;20958;-70
2022/07/09 08:10:48;;;;;;;2.90;2.10;;;19.40;99.90;;;;;;5071549;28;20469;-69
2022/07/09 08:13:16;;;;;;;2.60;2.10;;;19.60;99.90;;;;;;5071946;28;20455;-69
2022/07/09 08:15:43;;;;;;;2.70;1.80;;;19.70;99.90;;;;;;5070806;28;20847;-70
2022/07/09 08:18:12;;;;;;;2.20;1.73;;;19.70;99.90;;;;;;5072350;28;20458;-70
2022/07/09 08:20:39;;;;;;;2.40;1.77;;;19.80;99.90;;;;;;5071611;28;20465;-70
2022/07/09 08:23:06;;;;;;;3.53;2.47;;;19.90;99.90;;;;;;5072070;28;20486;-70
2022/07/09 08:25:33;;;;;;;3.00;1.80;;;20.00;99.90;;;;;;5071901;28;21321;-70
2022/07/09 08:27:59;;;;;;;1.80;1.50;;;20.00;99.90;;;;;;5072099;28;20462;-70
2022/07/09 08:30:28;;;;;;;3.07;1.93;;;20.20;99.90;;;;;;5071610;28;20462;-70
2022/07/09 08:32:54;;;;;;;3.53;2.20;;;20.30;99.90;;;;;;5071840;28;20455;-71
2022/07/09 08:35:21;;;;;;;1.97;1.77;;;20.40;99.90;;;;;;5071718;28;20485;-70
2022/07/09 08:37:48;;;;;;;2.27;1.57;;;20.40;99.90;;;;;;5071816;28;20458;-71
2022/07/09 08:40:15;;;;;;;1.83;1.67;;;20.40;99.90;;;;;;5071051;28;20512;-70
2022/07/09 08:42:42;;;;;;;5.00;1.67;;;20.50;99.90;;;;;;5071596;28;20556;-70
2022/07/09 08:45:13;;;;;;;2.60;1.70;;;20.70;99.90;;;;;;5071672;28;20490;-70
2022/07/09 08:47:41;;;;;;;5.50;2.23;;;20.80;99.90;;;;;;5070977;28;20462;-72
2022/07/09 08:50:09;;;;;;;2.60;1.77;;;21.00;99.90;;;;;;5071046;28;20820;-72
2022/07/09 08:52:37;;;;;;;3.80;2.10;;;21.10;99.90;;;;;;5071567;28;20491;-72
2022/07/09 08:55:07;;;;;;;2.13;1.93;;;21.30;99.90;;;;;;5071401;28;20486;-74
2022/07/09 08:57:33;;;;;;;4.20;2.03;;;21.40;99.90;;;;;;5071182;28;20459;-74
2022/07/09 09:00:01;;;;;;;2.47;2.10;;;21.50;99.90;;;;;;5069595;28;20465;-74
2022/07/09 09:02:27;;;;;;;3.97;2.60;;;21.60;99.80;;;;;;5070842;28;20493;-71
2022/07/09 09:04:57;;;;;;;4.33;2.30;;;21.60;99.80;;;;;;5070013;28;20985;-71
2022/07/09 09:07:23;;;;;;;1.87;1.77;;;21.70;98.80;;;;;;5071198;28;20918;-71
2022/07/09 09:09:50;;;;;;;3.93;2.20;;;21.70;99.20;;;;;;5070223;28;20469;-71
2022/07/09 09:12:27;;;;;;;2.30;1.93;;;21.80;99.90;;;;;;5071130;28;20462;-71
2022/07/09 09:14:54;;;;;;;3.63;2.17;;;22.00;99.90;;;;;;5070466;28;20485;-71
2022/07/09 09:17:21;;;;;;;2.80;2.13;;;22.10;99.90;;;;;;5070361;28;20458;-71
2022/07/09 09:19:47;;;;;;;2.90;2.10;;;22.20;99.90;;;;;;5069694;28;20838;-72
2022/07/09 09:22:18;;;;;;;2.40;2.00;;;22.20;98.60;;;;;;5069139;28;20454;-70
2022/07/09 09:24:49;;;;;;;3.70;2.10;;;22.20;99.10;;;;;;5070965;28;21021;-70
2022/07/09 09:27:16;;;;;;;3.60;2.30;;;22.30;99.90;;;;;;5070616;28;20470;-70
2022/07/09 09:29:51;;;;;;;4.30;2.50;;;22.30;99.90;;;;;;5070580;28;21023;-70
2022/07/09 09:32:21;;;;;;;3.33;2.20;;;22.50;99.90;;;;;;5070630;28;20455;-70
2022/07/09 09:34:51;;;;;;;2.60;1.83;;;22.70;99.90;;;;;;5070528;28;20483;-70
2022/07/09 09:37:27;;;;;;;2.70;1.70;;;23.00;99.90;;;;;;5070300;28;20455;-72
2022/07/09 09:39:54;;;;;;;3.47;1.70;;;23.10;98.90;;;;;;5068534;28;20462;-70
2022/07/09 09:42:24;;;;;;;2.77;1.60;;;23.30;99.90;;;;;;5070774;28;20843;-70
2022/07/09 09:44:51;;;;;;;2.47;1.70;;;23.30;98.80;;;;;;5070582;28;20497;-70
2022/07/09 09:47:23;;;;;;;3.83;2.27;;;23.40;99.90;;;;;;5070693;28;20485;-70
2022/07/09 09:49:50;;;;;;;2.60;1.90;;;23.50;98.80;;;;;;5069693;28;20990;-70
2022/07/09 09:52:20;;;;;;;3.30;1.77;;;23.60;99.40;;;;;;5070610;28;20460;-70
2022/07/09 09:54:51;;;;;;;2.23;1.73;;;23.60;98.80;;;;;;5070431;28;20858;-70
2022/07/09 09:57:18;;;;;;;3.90;1.90;;;23.60;97.40;;;;;;5070630;28;20506;-70
2022/07/09 09:59:45;;;;;;;3.43;2.00;;;23.50;98.20;;;;;;5069781;28;20462;-70
2022/07/09 10:02:13;;;;;;;3.63;1.63;;;23.30;98.50;;;;;;5070590;28;20470;-70
2022/07/09 10:04:41;;;;;;;1.90;1.80;;;23.20;97.70;;;;;;5069931;28;20489;-74
2022/07/09 10:07:09;;;;;;;2.80;2.03;;;23.20;98.40;;;;;;5069485;28;20473;-74
2022/07/09 10:09:36;;;;;;;4.70;1.80;;;23.40;98.20;;;;;;5068336;28;20823;-75
2022/07/09 10:12:05;;;;;;;2.70;1.77;;;23.50;98.60;;;;;;5067041;28;20469;-74
2022/07/09 10:14:33;;;;;;;3.20;2.13;;;23.60;98.10;;;;;;5065968;28;20486;-75
2022/07/09 10:17:12;;;;;;;2.80;1.77;;;23.60;95.70;;;;;;5070606;28;20517;-75
2022/07/09 10:19:39;;;;;;;4.30;3.83;;;23.50;97.30;;;;;;5071791;28;20464;-75
2022/07/09 10:22:06;;;;;;;4.73;3.10;;;23.40;96.30;;;;;;5072201;28;20462;-75
2022/07/09 10:24:38;;;;;;;3.53;2.10;;;23.60;98.30;;;;;;5072220;28;20505;-75
2022/07/09 10:27:08;;;;;;;2.50;1.83;;;23.70;97.80;;;;;;5072606;28;20460;-75
2022/07/09 10:29:36;;;;;;;2.43;1.57;;;24.00;99.70;;;;;;5069343;28;20485;-75
2022/07/09 10:32:05;;;;;;;2.60;1.50;;;24.30;99.00;;;;;;5072648;28;20537;-75
2022/07/09 10:34:55;;;;;;;1.50;1.37;;;24.50;97.50;;;;;;5071643;28;20855;-74
2022/07/09 10:37:32;;;;;;;2.70;1.60;;;24.70;97.10;;;;;;5072142;28;20485;-75
2022/07/09 10:40:10;;;;;;;1.80;1.50;;;24.90;96.70;;;;;;5069611;28;20458;-75
2022/07/09 10:42:38;;;;;;;2.53;1.70;;;24.80;97.20;;;;;;5070565;28;20860;-75
2022/07/09 10:45:20;;;;;;;4.33;1.53;;;24.70;96.40;;;;;;5071840;28;20863;-74
2022/07/09 10:47:52;;;;;;;2.17;1.57;;;24.40;95.80;;;;;;5070686;28;20454;-75
2022/07/09 10:50:19;;;;;;;2.10;1.73;;;24.10;95.50;;;;;;5071468;28;20461;-74
2022/07/09 10:52:46;;;;;;;2.50;1.67;;;24.00;96.30;;;;;;5071705;28;20957;-75
2022/07/09 10:55:16;;;;;;;1.97;1.60;;;24.00;96.00;;;;;;5071498;28;21579;-75
2022/07/09 10:57:44;;;;;;;3.83;1.73;;;24.20;97.60;;;;;;5071529;28;20529;-74
2022/07/09 11:00:15;;;;;;;2.30;1.90;;;24.40;97.60;;;;;;5071235;28;20863;-74
2022/07/09 11:02:52;;;;;;;1.73;1.63;;;24.60;97.20;;;;;;5071835;28;20458;-75
2022/07/09 11:05:19;;;;;;;2.90;1.50;;;24.80;96.40;;;;;;5071052;28;20473;-74
2022/07/09 11:07:55;;;;;;;1.70;1.60;;;25.00;96.30;;;;;;5071906;28;20466;-75
2022/07/09 11:10:22;;;;;;;2.37;2.17;;;25.30;97.00;;;;;;5069035;28;20587;-75
2022/07/09 11:12:50;;;;;;;3.00;1.53;;;25.60;97.70;;;;;;5069197;28;20454;-75
2022/07/09 11:15:18;;;;;;;3.53;1.80;;;25.80;96.30;;;;;;5071051;28;20474;-73
2022/07/09 11:17:45;;;;;;;3.37;1.60;;;26.00;96.30;;;;;;5071413;28;20490;-72
2022/07/09 11:20:11;;;;;;;2.20;1.70;;;26.00;94.80;;;;;;5072409;28;20458;-73
2022/07/09 11:22:38;;;;;;;1.50;1.33;;;25.70;94.70;;;;;;5073129;28;20472;-74
2022/07/09 11:25:06;;;;;;;1.50;1.30;;;25.40;94.90;;;;;;5070396;28;20486;-73
2022/07/09 11:27:33;;;;;;;4.10;3.60;;;25.10;95.00;;;;;;5070347;28;20462;-73
2022/07/09 11:30:04;;;;;;;4.53;2.20;;;24.80;96.00;;;;;;5070309;28;20462;-73
2022/07/09 11:32:31;;;;;;;1.90;1.53;;;24.40;95.50;;;;;;5070872;28;20450;-72
2022/07/09 11:34:58;;;;;;;5.73;2.00;;;24.10;96.40;;;;;;5071058;28;20485;-73
2022/07/09 11:37:25;;;;;;;2.00;1.80;;;23.90;96.60;;;;;;5071053;28;20560;-73
2022/07/09 11:39:53;;;;;;;3.40;1.97;;;23.70;96.70;;;;;;5070511;28;20482;-72
2022/07/09 11:42:20;;;;;;;1.90;1.80;;;23.60;96.50;;;;;;5070797;28;20481;-73
2022/07/09 11:44:55;;;;;;;2.80;1.87;;;23.40;96.60;;;;;;5070840;28;20487;-72
2022/07/09 11:47:33;;;;;;;3.00;1.67;;;23.40;97.10;;;;;;5070123;28;20462;-73
2022/07/09 11:50:06;;;;;;;2.27;2.00;;;23.40;96.80;;;;;;5070464;28;20470;-73
2022/07/09 11:52:33;;;;;;;2.30;2.10;;;23.40;97.50;;;;;;5070606;28;20490;-73
2022/07/09 11:55:01;;;;;;;2.03;1.73;;;23.40;97.60;;;;;;5071029;28;20841;-73
2022/07/09 11:57:29;;;;;;;4.07;2.10;;;23.50;97.10;;;;;;5070459;28;20486;-73
2022/07/09 11:59:56;;;;;;;2.03;1.60;;;23.50;97.90;;;;;;5069406;28;20454;-73
2022/07/09 12:02:25;;;;;;;2.73;1.90;;;23.70;97.80;;;;;;5070926;28;20450;-71
2022/07/09 12:04:52;;;;;;;2.27;1.63;;;23.70;98.10;;;;;;5070836;28;20869;-73
2022/07/09 12:07:19;;;;;;;2.50;1.70;;;23.80;97.80;;;;;;5070419;28;20464;-74
2022/07/09 12:09:46;;;;;;;1.83;1.60;;;23.90;98.10;;;;;;5070615;28;20455;-73
2022/07/09 12:12:12;;;;;;;2.03;1.83;;;23.90;98.10;;;;;;5070747;28;20458;-74
2022/07/09 12:14:39;;;;;;;2.53;1.97;;;23.90;97.60;;;;;;5070474;28;21048;-74
2022/07/09 12:17:06;;;;;;;3.67;2.77;;;24.00;98.50;;;;;;5070060;28;20532;-72
2022/07/09 12:19:34;;;;;;;1.80;1.70;;;24.00;98.10;;;;;;5070895;28;20469;-74
2022/07/09 12:22:00;;;;;;;1.90;1.53;;;23.90;97.60;;;;;;5070257;28;20459;-73
2022/07/09 12:24:27;;;;;;;2.33;1.83;;;23.90;96.70;;;;;;5069598;28;20878;-73
2022/07/09 12:26:54;;;;;;;2.70;1.90;;;24.00;97.30;;;;;;5069585;28;20455;-73
2022/07/09 12:29:20;;;;;;;1.90;1.60;;;23.90;98.10;;;;;;5069396;28;20455;-73
2022/07/09 12:31:47;;;;;;;2.00;1.50;;;24.00;97.90;;;;;;5071062;28;20953;-73
2022/07/09 12:34:14;;;;;;;2.33;1.40;;;24.10;98.20;;;;;;5072056;28;20475;-73
2022/07/09 12:36:42;;;;;;;2.47;1.80;;;24.30;97.00;;;;;;5072245;28;20463;-73
2022/07/09 12:39:09;;;;;;;1.60;1.40;;;24.30;98.00;;;;;;5071342;28;20542;-73
2022/07/09 12:41:35;;;;;;;2.50;1.80;;;24.40;98.20;;;;;;5071717;28;20892;-73
2022/07/09 12:44:02;;;;;;;2.57;1.70;;;24.40;97.10;;;;;;5071679;28;20490;-73
2022/07/09 12:46:29;;;;;;;2.90;1.93;;;24.20;97.20;;;;;;5071671;28;20469;-73
2022/07/09 12:48:55;;;;;;;1.70;1.60;;;24.10;96.30;;;;;;5071594;28;20980;-73
2022/07/09 12:51:22;;;;;;;2.03;1.50;;;23.90;96.70;;;;;;5071110;28;20462;-73